Main page
Satellite images 15-day forecastsClimateMarine weather Cyclones Lightning AirportsFAQ Newsletter About
Weather : Europe Africa North America South America Asia Australia-Oceania Others
Languages Contact

Brussels, Belgium

National

latitude: 50-54N, longitude: 004-32E, elevation: 55 m


METAR: EBBR 182020Z 36006KT 9999 FEW030 07/03 Q1017 NOSIG
short-TAF: out of date (36728 hours)
long-TAF: EBBR 181710Z 1818/1924 36010KT 9999 SCT030 BECMG 1906/1908 07009KT

Time: 22:48 (20:48 UTC)

Current weather observation

The report was made 28 minutes ago, at 20:20 UTC  
Wind 06 kt from north
Temperature 7°C
Humidity 76%
Pressure 1017 hPa
Visibility 10 km or more
Few clouds at a height of 3000 ft

Change units

Forecast

The report was made 3 hours and 21 minutes ago, at 17:27 UTC  
Forecast valid from 18 at 18 UTC to 19 at 24 UTC
Wind 10 kt from north
Visibility 10 km or more
Scattered clouds at a height of 3000 ft
Becoming
from 19 at 06 UTC to 19 at 08 UTC
Wind 09 kt from east/northeast
The information on this site is subject to a disclaimer
Weather : Europe Africa North America South America Asia Australia-Oceania Others
Satellite images 15-day forecastsClimateMarine weather Cyclones Lightning AirportsFAQ Languages Contact Newsletter About